sensor_id;sensor_type;location;lat;lon;timestamp;P1;durP1;ratioP1;P2;durP2;ratioP2
4323;SDS011;2175;51.018;6.994;2023-07-09T00:02:19;16.10;;;8.43;;
4323;SDS011;2175;51.018;6.994;2023-07-09T00:04:46;21.87;;;8.50;;
4323;SDS011;2175;51.018;6.994;2023-07-09T00:07:19;13.67;;;7.90;;
4323;SDS011;2175;51.018;6.994;2023-07-09T00:09:49;11.17;;;7.90;;
4323;SDS011;2175;51.018;6.994;2023-07-09T00:12:16;17.17;;;8.80;;
4323;SDS011;2175;51.018;6.994;2023-07-09T00:14:42;12.77;;;8.70;;
4323;SDS011;2175;51.018;6.994;2023-07-09T00:17:12;12.43;;;8.97;;
4323;SDS011;2175;51.018;6.994;2023-07-09T00:19:44;14.23;;;8.53;;
4323;SDS011;2175;51.018;6.994;2023-07-09T00:22:13;14.73;;;8.60;;
4323;SDS011;2175;51.018;6.994;2023-07-09T00:24:43;12.30;;;8.90;;
4323;SDS011;2175;51.018;6.994;2023-07-09T00:27:10;14.10;;;9.10;;
4323;SDS011;2175;51.018;6.994;2023-07-09T00:29:37;13.33;;;9.40;;
4323;SDS011;2175;51.018;6.994;2023-07-09T00:32:02;12.73;;;8.33;;
4323;SDS011;2175;51.018;6.994;2023-07-09T00:34:28;16.53;;;8.80;;
4323;SDS011;2175;51.018;6.994;2023-07-09T00:36:53;11.10;;;9.10;;
4323;SDS011;2175;51.018;6.994;2023-07-09T00:39:20;14.93;;;8.27;;
4323;SDS011;2175;51.018;6.994;2023-07-09T00:41:48;14.17;;;9.13;;
4323;SDS011;2175;51.018;6.994;2023-07-09T00:49:34;12.10;;;9.23;;
4323;SDS011;2175;51.018;6.994;2023-07-09T00:55:19;12.60;;;8.77;;
4323;SDS011;2175;51.018;6.994;2023-07-09T00:57:48;12.17;;;9.10;;
4323;SDS011;2175;51.018;6.994;2023-07-09T01:00:22;13.10;;;9.37;;
4323;SDS011;2175;51.018;6.994;2023-07-09T01:02:55;15.83;;;9.70;;
4323;SDS011;2175;51.018;6.994;2023-07-09T01:05:23;16.50;;;9.27;;
4323;SDS011;2175;51.018;6.994;2023-07-09T01:07:48;11.40;;;8.90;;
4323;SDS011;2175;51.018;6.994;2023-07-09T01:10:15;14.03;;;8.77;;
4323;SDS011;2175;51.018;6.994;2023-07-09T01:12:42;12.13;;;9.43;;
4323;SDS011;2175;51.018;6.994;2023-07-09T01:15:10;11.87;;;8.90;;
4323;SDS011;2175;51.018;6.994;2023-07-09T01:17:36;12.67;;;9.80;;
4323;SDS011;2175;51.018;6.994;2023-07-09T01:20:02;13.27;;;9.20;;
4323;SDS011;2175;51.018;6.994;2023-07-09T01:22:28;12.23;;;8.70;;
4323;SDS011;2175;51.018;6.994;2023-07-09T01:24:56;19.20;;;9.30;;
4323;SDS011;2175;51.018;6.994;2023-07-09T01:27:29;13.57;;;9.13;;
4323;SDS011;2175;51.018;6.994;2023-07-09T01:29:58;14.07;;;9.07;;
4323;SDS011;2175;51.018;6.994;2023-07-09T01:32:25;15.20;;;9.30;;
4323;SDS011;2175;51.018;6.994;2023-07-09T01:34:52;15.40;;;8.70;;
4323;SDS011;2175;51.018;6.994;2023-07-09T01:37:20;15.43;;;8.90;;
4323;SDS011;2175;51.018;6.994;2023-07-09T01:39:49;15.43;;;8.90;;
4323;SDS011;2175;51.018;6.994;2023-07-09T01:42:16;14.27;;;8.83;;
4323;SDS011;2175;51.018;6.994;2023-07-09T01:44:42;11.33;;;8.90;;
4323;SDS011;2175;51.018;6.994;2023-07-09T01:47:10;12.47;;;8.20;;
4323;SDS011;2175;51.018;6.994;2023-07-09T01:49:36;10.67;;;8.27;;
4323;SDS011;2175;51.018;6.994;2023-07-09T01:52:05;12.30;;;8.50;;
4323;SDS011;2175;51.018;6.994;2023-07-09T01:54:35;16.97;;;10.37;;
4323;SDS011;2175;51.018;6.994;2023-07-09T01:57:20;13.87;;;8.33;;
4323;SDS011;2175;51.018;6.994;2023-07-09T01:59:48;12.90;;;8.93;;
4323;SDS011;2175;51.018;6.994;2023-07-09T02:02:15;12.40;;;8.87;;
4323;SDS011;2175;51.018;6.994;2023-07-09T02:04:54;14.97;;;8.90;;
4323;SDS011;2175;51.018;6.994;2023-07-09T02:07:22;11.10;;;8.77;;
4323;SDS011;2175;51.018;6.994;2023-07-09T02:09:49;13.90;;;8.93;;
4323;SDS011;2175;51.018;6.994;2023-07-09T02:12:15;11.67;;;8.33;;
4323;SDS011;2175;51.018;6.994;2023-07-09T02:14:42;11.97;;;8.90;;
4323;SDS011;2175;51.018;6.994;2023-07-09T02:17:09;13.63;;;9.10;;
4323;SDS011;2175;51.018;6.994;2023-07-09T02:19:36;12.50;;;8.90;;
4323;SDS011;2175;51.018;6.994;2023-07-09T02:22:02;10.03;;;7.83;;
4323;SDS011;2175;51.018;6.994;2023-07-09T02:24:28;16.03;;;8.77;;
4323;SDS011;2175;51.018;6.994;2023-07-09T02:26:54;14.30;;;9.00;;
4323;SDS011;2175;51.018;6.994;2023-07-09T02:29:20;11.23;;;8.77;;
4323;SDS011;2175;51.018;6.994;2023-07-09T02:31:47;14.80;;;9.13;;
4323;SDS011;2175;51.018;6.994;2023-07-09T02:34:13;13.40;;;9.40;;
4323;SDS011;2175;51.018;6.994;2023-07-09T02:36:39;15.10;;;9.90;;
4323;SDS011;2175;51.018;6.994;2023-07-09T02:39:08;13.30;;;9.43;;
4323;SDS011;2175;51.018;6.994;2023-07-09T02:41:38;15.53;;;8.60;;
4323;SDS011;2175;51.018;6.994;2023-07-09T02:44:05;14.17;;;9.17;;
4323;SDS011;2175;51.018;6.994;2023-07-09T02:46:31;16.73;;;9.57;;
4323;SDS011;2175;51.018;6.994;2023-07-09T02:48:56;15.37;;;9.83;;
4323;SDS011;2175;51.018;6.994;2023-07-09T02:51:23;11.80;;;8.50;;
4323;SDS011;2175;51.018;6.994;2023-07-09T02:53:51;12.90;;;8.70;;
4323;SDS011;2175;51.018;6.994;2023-07-09T02:56:16;10.33;;;7.80;;
4323;SDS011;2175;51.018;6.994;2023-07-09T02:58:42;11.70;;;8.60;;
4323;SDS011;2175;51.018;6.994;2023-07-09T03:01:07;13.50;;;9.57;;
4323;SDS011;2175;51.018;6.994;2023-07-09T03:03:33;15.37;;;9.50;;
4323;SDS011;2175;51.018;6.994;2023-07-09T03:05:58;16.13;;;9.70;;
4323;SDS011;2175;51.018;6.994;2023-07-09T03:08:24;15.47;;;9.63;;
4323;SDS011;2175;51.018;6.994;2023-07-09T03:10:49;14.80;;;10.40;;
4323;SDS011;2175;51.018;6.994;2023-07-09T03:13:15;18.23;;;10.60;;
4323;SDS011;2175;51.018;6.994;2023-07-09T03:15:41;19.00;;;10.33;;
4323;SDS011;2175;51.018;6.994;2023-07-09T03:18:06;15.73;;;11.27;;
4323;SDS011;2175;51.018;6.994;2023-07-09T03:20:32;18.80;;;11.90;;
4323;SDS011;2175;51.018;6.994;2023-07-09T03:22:57;12.60;;;10.13;;
4323;SDS011;2175;51.018;6.994;2023-07-09T03:25:23;14.60;;;10.13;;
4323;SDS011;2175;51.018;6.994;2023-07-09T03:27:48;13.60;;;9.60;;
4323;SDS011;2175;51.018;6.994;2023-07-09T03:30:14;15.93;;;9.87;;
4323;SDS011;2175;51.018;6.994;2023-07-09T03:32:40;15.60;;;9.90;;
4323;SDS011;2175;51.018;6.994;2023-07-09T03:35:05;14.73;;;9.57;;
4323;SDS011;2175;51.018;6.994;2023-07-09T03:37:31;12.87;;;9.13;;
4323;SDS011;2175;51.018;6.994;2023-07-09T03:39:57;13.90;;;9.80;;
4323;SDS011;2175;51.018;6.994;2023-07-09T03:42:23;15.10;;;10.80;;
4323;SDS011;2175;51.018;6.994;2023-07-09T03:44:48;13.83;;;9.87;;
4323;SDS011;2175;51.018;6.994;2023-07-09T03:47:14;15.97;;;9.93;;
4323;SDS011;2175;51.018;6.994;2023-07-09T03:49:39;13.50;;;9.00;;
4323;SDS011;2175;51.018;6.994;2023-07-09T03:52:06;14.97;;;8.93;;
4323;SDS011;2175;51.018;6.994;2023-07-09T03:54:32;12.63;;;9.90;;
4323;SDS011;2175;51.018;6.994;2023-07-09T03:56:58;16.80;;;10.80;;
4323;SDS011;2175;51.018;6.994;2023-07-09T03:59:24;13.13;;;9.30;;
4323;SDS011;2175;51.018;6.994;2023-07-09T04:01:49;11.73;;;9.53;;
4323;SDS011;2175;51.018;6.994;2023-07-09T04:04:15;15.23;;;10.37;;
4323;SDS011;2175;51.018;6.994;2023-07-09T04:06:45;11.83;;;9.27;;
4323;SDS011;2175;51.018;6.994;2023-07-09T04:09:11;11.60;;;9.60;;
4323;SDS011;2175;51.018;6.994;2023-07-09T04:11:36;13.67;;;9.53;;
4323;SDS011;2175;51.018;6.994;2023-07-09T04:14:02;13.23;;;10.33;;
4323;SDS011;2175;51.018;6.994;2023-07-09T04:16:27;12.10;;;8.80;;
4323;SDS011;2175;51.018;6.994;2023-07-09T04:18:53;15.50;;;10.33;;
4323;SDS011;2175;51.018;6.994;2023-07-09T04:21:18;13.50;;;9.33;;
4323;SDS011;2175;51.018;6.994;2023-07-09T04:23:44;16.73;;;10.03;;
4323;SDS011;2175;51.018;6.994;2023-07-09T04:26:13;16.23;;;10.73;;
4323;SDS011;2175;51.018;6.994;2023-07-09T04:28:39;18.80;;;9.70;;
4323;SDS011;2175;51.018;6.994;2023-07-09T04:31:04;13.27;;;10.47;;
4323;SDS011;2175;51.018;6.994;2023-07-09T04:33:30;12.93;;;9.27;;
4323;SDS011;2175;51.018;6.994;2023-07-09T04:35:56;12.57;;;9.33;;
4323;SDS011;2175;51.018;6.994;2023-07-09T04:38:22;14.33;;;9.17;;
4323;SDS011;2175;51.018;6.994;2023-07-09T04:40:48;12.30;;;8.60;;
4323;SDS011;2175;51.018;6.994;2023-07-09T04:43:14;12.60;;;8.67;;
4323;SDS011;2175;51.018;6.994;2023-07-09T04:45:40;12.80;;;9.40;;
4323;SDS011;2175;51.018;6.994;2023-07-09T04:48:05;11.30;;;8.50;;
4323;SDS011;2175;51.018;6.994;2023-07-09T04:50:31;11.60;;;8.70;;
4323;SDS011;2175;51.018;6.994;2023-07-09T04:52:58;11.40;;;7.93;;
4323;SDS011;2175;51.018;6.994;2023-07-09T04:55:24;9.80;;;7.67;;
4323;SDS011;2175;51.018;6.994;2023-07-09T04:57:51;11.13;;;8.30;;
4323;SDS011;2175;51.018;6.994;2023-07-09T05:00:17;9.60;;;8.27;;
4323;SDS011;2175;51.018;6.994;2023-07-09T05:02:42;12.50;;;8.43;;
4323;SDS011;2175;51.018;6.994;2023-07-09T05:05:08;17.10;;;8.43;;
4323;SDS011;2175;51.018;6.994;2023-07-09T05:07:34;12.97;;;8.17;;
4323;SDS011;2175;51.018;6.994;2023-07-09T05:09:59;11.70;;;8.03;;
4323;SDS011;2175;51.018;6.994;2023-07-09T05:12:26;14.13;;;8.40;;
4323;SDS011;2175;51.018;6.994;2023-07-09T05:14:52;13.77;;;8.20;;
4323;SDS011;2175;51.018;6.994;2023-07-09T05:17:19;12.57;;;8.27;;
4323;SDS011;2175;51.018;6.994;2023-07-09T05:19:44;13.07;;;8.40;;
4323;SDS011;2175;51.018;6.994;2023-07-09T05:22:10;11.50;;;8.33;;
4323;SDS011;2175;51.018;6.994;2023-07-09T05:24:36;12.23;;;7.67;;
4323;SDS011;2175;51.018;6.994;2023-07-09T05:27:01;10.83;;;7.30;;
4323;SDS011;2175;51.018;6.994;2023-07-09T05:29:27;11.83;;;7.97;;
4323;SDS011;2175;51.018;6.994;2023-07-09T05:31:53;13.53;;;7.80;;
4323;SDS011;2175;51.018;6.994;2023-07-09T05:34:18;12.37;;;7.70;;
4323;SDS011;2175;51.018;6.994;2023-07-09T05:36:44;15.50;;;8.43;;
4323;SDS011;2175;51.018;6.994;2023-07-09T05:39:09;11.83;;;8.50;;
4323;SDS011;2175;51.018;6.994;2023-07-09T05:41:35;11.80;;;8.30;;
4323;SDS011;2175;51.018;6.994;2023-07-09T05:44:01;13.30;;;7.73;;
4323;SDS011;2175;51.018;6.994;2023-07-09T05:46:27;9.77;;;7.73;;
4323;SDS011;2175;51.018;6.994;2023-07-09T05:48:52;10.67;;;8.20;;
4323;SDS011;2175;51.018;6.994;2023-07-09T05:51:18;16.50;;;7.20;;
4323;SDS011;2175;51.018;6.994;2023-07-09T05:53:46;11.03;;;8.13;;
4323;SDS011;2175;51.018;6.994;2023-07-09T05:56:11;12.93;;;8.27;;
4323;SDS011;2175;51.018;6.994;2023-07-09T05:58:38;11.23;;;7.53;;
4323;SDS011;2175;51.018;6.994;2023-07-09T06:01:04;11.83;;;7.87;;
4323;SDS011;2175;51.018;6.994;2023-07-09T06:03:30;10.03;;;7.27;;
4323;SDS011;2175;51.018;6.994;2023-07-09T06:05:56;12.10;;;7.23;;
4323;SDS011;2175;51.018;6.994;2023-07-09T06:08:23;12.33;;;7.77;;
4323;SDS011;2175;51.018;6.994;2023-07-09T06:10:56;9.20;;;7.13;;
4323;SDS011;2175;51.018;6.994;2023-07-09T06:13:27;10.80;;;6.90;;
4323;SDS011;2175;51.018;6.994;2023-07-09T06:15:55;14.27;;;7.93;;
4323;SDS011;2175;51.018;6.994;2023-07-09T06:18:22;10.07;;;7.33;;
4323;SDS011;2175;51.018;6.994;2023-07-09T06:20:53;15.33;;;7.37;;
4323;SDS011;2175;51.018;6.994;2023-07-09T06:23:20;12.23;;;7.30;;
4323;SDS011;2175;51.018;6.994;2023-07-09T06:25:46;12.00;;;6.60;;
4323;SDS011;2175;51.018;6.994;2023-07-09T06:28:16;9.17;;;6.90;;
4323;SDS011;2175;51.018;6.994;2023-07-09T06:30:43;9.53;;;6.73;;
4323;SDS011;2175;51.018;6.994;2023-07-09T06:33:09;10.83;;;7.60;;
4323;SDS011;2175;51.018;6.994;2023-07-09T06:35:36;11.70;;;7.10;;
4323;SDS011;2175;51.018;6.994;2023-07-09T06:38:02;14.63;;;7.60;;
4323;SDS011;2175;51.018;6.994;2023-07-09T06:40:28;11.60;;;7.90;;
4323;SDS011;2175;51.018;6.994;2023-07-09T06:42:54;11.60;;;7.83;;
4323;SDS011;2175;51.018;6.994;2023-07-09T06:45:19;9.90;;;6.80;;
4323;SDS011;2175;51.018;6.994;2023-07-09T06:47:45;12.90;;;7.43;;
4323;SDS011;2175;51.018;6.994;2023-07-09T06:50:11;9.63;;;6.27;;
4323;SDS011;2175;51.018;6.994;2023-07-09T06:52:37;13.53;;;6.60;;
4323;SDS011;2175;51.018;6.994;2023-07-09T06:55:03;11.70;;;7.73;;
4323;SDS011;2175;51.018;6.994;2023-07-09T06:57:28;12.80;;;6.93;;
4323;SDS011;2175;51.018;6.994;2023-07-09T06:59:54;10.77;;;7.63;;
4323;SDS011;2175;51.018;6.994;2023-07-09T07:02:20;11.00;;;6.40;;
4323;SDS011;2175;51.018;6.994;2023-07-09T07:04:45;11.10;;;7.03;;
4323;SDS011;2175;51.018;6.994;2023-07-09T07:07:11;10.43;;;6.83;;
4323;SDS011;2175;51.018;6.994;2023-07-09T07:09:37;11.43;;;6.80;;
4323;SDS011;2175;51.018;6.994;2023-07-09T07:12:02;13.10;;;7.80;;
4323;SDS011;2175;51.018;6.994;2023-07-09T07:14:28;9.53;;;6.33;;
4323;SDS011;2175;51.018;6.994;2023-07-09T07:16:55;12.20;;;7.77;;
4323;SDS011;2175;51.018;6.994;2023-07-09T07:19:22;9.57;;;7.33;;
4323;SDS011;2175;51.018;6.994;2023-07-09T07:21:47;10.20;;;6.27;;
4323;SDS011;2175;51.018;6.994;2023-07-09T07:24:13;11.20;;;7.03;;
4323;SDS011;2175;51.018;6.994;2023-07-09T07:26:38;8.00;;;6.00;;
4323;SDS011;2175;51.018;6.994;2023-07-09T07:29:04;9.50;;;6.87;;
4323;SDS011;2175;51.018;6.994;2023-07-09T07:31:29;10.43;;;7.20;;
4323;SDS011;2175;51.018;6.994;2023-07-09T07:33:55;8.60;;;6.67;;
4323;SDS011;2175;51.018;6.994;2023-07-09T07:36:21;9.40;;;6.03;;
4323;SDS011;2175;51.018;6.994;2023-07-09T07:38:47;10.30;;;6.90;;
4323;SDS011;2175;51.018;6.994;2023-07-09T07:41:12;13.50;;;6.27;;
4323;SDS011;2175;51.018;6.994;2023-07-09T07:43:38;12.20;;;6.97;;
4323;SDS011;2175;51.018;6.994;2023-07-09T07:46:03;13.27;;;6.37;;
4323;SDS011;2175;51.018;6.994;2023-07-09T07:48:31;11.67;;;6.63;;
4323;SDS011;2175;51.018;6.994;2023-07-09T07:50:59;9.37;;;6.60;;
4323;SDS011;2175;51.018;6.994;2023-07-09T07:53:26;12.10;;;6.10;;
4323;SDS011;2175;51.018;6.994;2023-07-09T07:55:54;11.23;;;6.57;;
4323;SDS011;2175;51.018;6.994;2023-07-09T07:58:21;7.70;;;5.77;;
4323;SDS011;2175;51.018;6.994;2023-07-09T08:00:47;11.43;;;6.40;;
4323;SDS011;2175;51.018;6.994;2023-07-09T08:03:12;10.93;;;6.93;;
4323;SDS011;2175;51.018;6.994;2023-07-09T08:05:38;7.60;;;5.83;;
4323;SDS011;2175;51.018;6.994;2023-07-09T08:08:03;15.90;;;6.90;;
4323;SDS011;2175;51.018;6.994;2023-07-09T08:10:29;10.23;;;6.70;;
4323;SDS011;2175;51.018;6.994;2023-07-09T08:12:55;11.60;;;6.37;;
4323;SDS011;2175;51.018;6.994;2023-07-09T08:15:23;10.00;;;6.20;;
4323;SDS011;2175;51.018;6.994;2023-07-09T08:17:52;8.47;;;5.93;;
4323;SDS011;2175;51.018;6.994;2023-07-09T08:20:18;10.50;;;6.63;;
4323;SDS011;2175;51.018;6.994;2023-07-09T08:22:43;7.30;;;6.00;;
4323;SDS011;2175;51.018;6.994;2023-07-09T08:25:09;9.87;;;6.60;;
4323;SDS011;2175;51.018;6.994;2023-07-09T08:27:34;6.53;;;5.70;;
4323;SDS011;2175;51.018;6.994;2023-07-09T08:30:00;9.40;;;5.80;;
4323;SDS011;2175;51.018;6.994;2023-07-09T08:32:26;8.90;;;6.73;;
4323;SDS011;2175;51.018;6.994;2023-07-09T08:34:54;14.40;;;6.33;;
4323;SDS011;2175;51.018;6.994;2023-07-09T08:37:19;7.17;;;6.00;;
4323;SDS011;2175;51.018;6.994;2023-07-09T08:39:45;9.53;;;5.80;;
4323;SDS011;2175;51.018;6.994;2023-07-09T08:42:11;10.27;;;6.17;;
4323;SDS011;2175;51.018;6.994;2023-07-09T08:50:07;7.50;;;5.47;;
4323;SDS011;2175;51.018;6.994;2023-07-09T08:52:39;8.70;;;5.93;;
4323;SDS011;2175;51.018;6.994;2023-07-09T08:57:49;8.40;;;6.00;;
4323;SDS011;2175;51.018;6.994;2023-07-09T09:03:14;11.30;;;5.63;;
4323;SDS011;2175;51.018;6.994;2023-07-09T09:05:47;8.43;;;6.33;;
4323;SDS011;2175;51.018;6.994;2023-07-09T09:11:44;15.87;;;5.50;;
4323;SDS011;2175;51.018;6.994;2023-07-09T09:16:52;7.37;;;4.80;;
4323;SDS011;2175;51.018;6.994;2023-07-09T09:21:54;8.80;;;5.30;;
4323;SDS011;2175;51.018;6.994;2023-07-09T09:24:30;7.30;;;5.47;;
4323;SDS011;2175;51.018;6.994;2023-07-09T09:27:00;11.20;;;5.07;;
4323;SDS011;2175;51.018;6.994;2023-07-09T09:29:26;7.43;;;4.73;;
4323;SDS011;2175;51.018;6.994;2023-07-09T09:31:53;8.50;;;4.63;;
4323;SDS011;2175;51.018;6.994;2023-07-09T09:34:29;6.23;;;4.90;;
4323;SDS011;2175;51.018;6.994;2023-07-09T09:36:56;7.50;;;4.67;;
4323;SDS011;2175;51.018;6.994;2023-07-09T09:39:23;6.33;;;4.50;;
4323;SDS011;2175;51.018;6.994;2023-07-09T09:41:51;4.77;;;4.30;;
4323;SDS011;2175;51.018;6.994;2023-07-09T09:44:26;6.73;;;4.60;;
4323;SDS011;2175;51.018;6.994;2023-07-09T09:46:56;6.50;;;4.20;;
4323;SDS011;2175;51.018;6.994;2023-07-09T09:49:22;4.63;;;4.13;;
4323;SDS011;2175;51.018;6.994;2023-07-09T09:51:48;6.10;;;4.20;;
4323;SDS011;2175;51.018;6.994;2023-07-09T09:54:18;5.43;;;4.37;;
4323;SDS011;2175;51.018;6.994;2023-07-09T09:56:47;5.80;;;4.73;;
4323;SDS011;2175;51.018;6.994;2023-07-09T09:59:19;7.03;;;4.87;;
4323;SDS011;2175;51.018;6.994;2023-07-09T10:01:46;7.27;;;4.70;;
4323;SDS011;2175;51.018;6.994;2023-07-09T10:04:21;5.30;;;4.57;;
4323;SDS011;2175;51.018;6.994;2023-07-09T10:06:48;8.40;;;5.10;;
4323;SDS011;2175;51.018;6.994;2023-07-09T10:17:45;6.90;;;4.30;;
4323;SDS011;2175;51.018;6.994;2023-07-09T10:20:24;5.90;;;4.90;;
4323;SDS011;2175;51.018;6.994;2023-07-09T10:25:55;8.33;;;5.07;;
4323;SDS011;2175;51.018;6.994;2023-07-09T10:28:31;5.93;;;4.77;;
4323;SDS011;2175;51.018;6.994;2023-07-09T10:31:21;14.23;;;5.20;;
4323;SDS011;2175;51.018;6.994;2023-07-09T10:34:03;7.23;;;4.57;;
4323;SDS011;2175;51.018;6.994;2023-07-09T10:39:58;5.37;;;4.50;;
4323;SDS011;2175;51.018;6.994;2023-07-09T10:42:29;7.00;;;4.40;;
4323;SDS011;2175;51.018;6.994;2023-07-09T10:45:03;5.80;;;4.70;;
4323;SDS011;2175;51.018;6.994;2023-07-09T10:47:39;7.30;;;4.90;;
4323;SDS011;2175;51.018;6.994;2023-07-09T10:50:15;7.57;;;4.70;;
4323;SDS011;2175;51.018;6.994;2023-07-09T10:52:49;5.53;;;4.33;;
4323;SDS011;2175;51.018;6.994;2023-07-09T10:55:26;8.10;;;5.00;;
4323;SDS011;2175;51.018;6.994;2023-07-09T11:00:55;8.63;;;4.47;;
4323;SDS011;2175;51.018;6.994;2023-07-09T11:03:24;6.40;;;4.47;;
4323;SDS011;2175;51.018;6.994;2023-07-09T11:06:31;6.47;;;5.00;;
4323;SDS011;2175;51.018;6.994;2023-07-09T11:09:21;6.03;;;4.10;;
4323;SDS011;2175;51.018;6.994;2023-07-09T11:11:55;5.40;;;4.47;;
4323;SDS011;2175;51.018;6.994;2023-07-09T11:14:43;6.00;;;4.70;;
4323;SDS011;2175;51.018;6.994;2023-07-09T11:17:20;6.97;;;4.73;;
4323;SDS011;2175;51.018;6.994;2023-07-09T11:19:52;5.90;;;5.30;;
4323;SDS011;2175;51.018;6.994;2023-07-09T11:22:21;5.00;;;4.07;;
4323;SDS011;2175;51.018;6.994;2023-07-09T11:29:55;4.90;;;4.13;;
4323;SDS011;2175;51.018;6.994;2023-07-09T11:32:24;6.13;;;3.80;;
4323;SDS011;2175;51.018;6.994;2023-07-09T11:34:50;6.33;;;4.73;;
4323;SDS011;2175;51.018;6.994;2023-07-09T11:37:16;5.17;;;4.20;;
4323;SDS011;2175;51.018;6.994;2023-07-09T11:39:43;7.33;;;4.30;;
4323;SDS011;2175;51.018;6.994;2023-07-09T11:42:30;8.27;;;4.77;;
4323;SDS011;2175;51.018;6.994;2023-07-09T11:47:34;6.27;;;4.73;;
4323;SDS011;2175;51.018;6.994;2023-07-09T11:52:59;5.77;;;4.70;;
4323;SDS011;2175;51.018;6.994;2023-07-09T11:55:31;7.53;;;5.17;;
4323;SDS011;2175;51.018;6.994;2023-07-09T11:58:07;9.27;;;5.37;;
4323;SDS011;2175;51.018;6.994;2023-07-09T12:00:44;6.60;;;4.40;;
4323;SDS011;2175;51.018;6.994;2023-07-09T12:03:23;9.07;;;5.10;;
4323;SDS011;2175;51.018;6.994;2023-07-09T12:05:51;10.10;;;4.60;;
4323;SDS011;2175;51.018;6.994;2023-07-09T12:08:20;7.40;;;4.60;;
4323;SDS011;2175;51.018;6.994;2023-07-09T12:10:51;7.57;;;4.87;;
4323;SDS011;2175;51.018;6.994;2023-07-09T12:13:18;8.80;;;4.33;;
4323;SDS011;2175;51.018;6.994;2023-07-09T12:15:43;9.57;;;5.13;;
4323;SDS011;2175;51.018;6.994;2023-07-09T12:18:10;8.37;;;5.10;;
4323;SDS011;2175;51.018;6.994;2023-07-09T12:20:38;9.50;;;4.50;;
4323;SDS011;2175;51.018;6.994;2023-07-09T12:23:39;9.80;;;4.90;;
4323;SDS011;2175;51.018;6.994;2023-07-09T12:26:01;6.40;;;4.70;;
4323;SDS011;2175;51.018;6.994;2023-07-09T12:28:28;9.00;;;5.07;;
4323;SDS011;2175;51.018;6.994;2023-07-09T12:30:54;9.30;;;4.80;;
4323;SDS011;2175;51.018;6.994;2023-07-09T12:33:24;7.57;;;4.60;;
4323;SDS011;2175;51.018;6.994;2023-07-09T12:35:58;7.30;;;4.90;;
4323;SDS011;2175;51.018;6.994;2023-07-09T12:38:27;6.00;;;4.80;;
4323;SDS011;2175;51.018;6.994;2023-07-09T12:41:14;5.60;;;4.23;;
4323;SDS011;2175;51.018;6.994;2023-07-09T12:43:47;8.70;;;4.47;;
4323;SDS011;2175;51.018;6.994;2023-07-09T12:46:14;5.10;;;4.60;;
4323;SDS011;2175;51.018;6.994;2023-07-09T12:48:40;6.30;;;4.80;;
4323;SDS011;2175;51.018;6.994;2023-07-09T12:51:06;8.70;;;4.63;;
4323;SDS011;2175;51.018;6.994;2023-07-09T12:53:33;10.63;;;5.00;;
4323;SDS011;2175;51.018;6.994;2023-07-09T12:56:00;5.70;;;4.83;;
4323;SDS011;2175;51.018;6.994;2023-07-09T12:58:36;6.53;;;4.43;;
4323;SDS011;2175;51.018;6.994;2023-07-09T13:01:08;9.17;;;4.73;;
4323;SDS011;2175;51.018;6.994;2023-07-09T13:03:40;6.43;;;5.20;;
4323;SDS011;2175;51.018;6.994;2023-07-09T13:06:06;7.33;;;4.60;;
4323;SDS011;2175;51.018;6.994;2023-07-09T13:08:55;7.37;;;4.73;;
4323;SDS011;2175;51.018;6.994;2023-07-09T13:11:24;12.40;;;5.10;;
4323;SDS011;2175;51.018;6.994;2023-07-09T13:13:58;15.17;;;5.23;;
4323;SDS011;2175;51.018;6.994;2023-07-09T13:16:26;5.77;;;4.53;;
4323;SDS011;2175;51.018;6.994;2023-07-09T13:18:52;9.23;;;4.80;;
4323;SDS011;2175;51.018;6.994;2023-07-09T13:21:19;7.27;;;5.07;;
4323;SDS011;2175;51.018;6.994;2023-07-09T13:23:46;10.43;;;5.20;;
4323;SDS011;2175;51.018;6.994;2023-07-09T13:26:12;11.40;;;5.10;;
4323;SDS011;2175;51.018;6.994;2023-07-09T13:28:38;8.10;;;4.87;;
4323;SDS011;2175;51.018;6.994;2023-07-09T13:33:37;9.90;;;5.10;;
4323;SDS011;2175;51.018;6.994;2023-07-09T13:36:03;6.07;;;4.70;;
4323;SDS011;2175;51.018;6.994;2023-07-09T13:38:29;10.50;;;5.43;;
4323;SDS011;2175;51.018;6.994;2023-07-09T13:40:56;7.90;;;4.90;;
4323;SDS011;2175;51.018;6.994;2023-07-09T13:43:28;7.03;;;5.23;;
4323;SDS011;2175;51.018;6.994;2023-07-09T13:45:55;10.53;;;5.40;;
4323;SDS011;2175;51.018;6.994;2023-07-09T13:48:22;8.27;;;5.23;;
4323;SDS011;2175;51.018;6.994;2023-07-09T13:50:49;7.50;;;5.23;;
4323;SDS011;2175;51.018;6.994;2023-07-09T13:53:18;10.17;;;5.70;;
4323;SDS011;2175;51.018;6.994;2023-07-09T13:55:46;6.67;;;5.30;;
4323;SDS011;2175;51.018;6.994;2023-07-09T13:58:13;14.70;;;5.77;;
4323;SDS011;2175;51.018;6.994;2023-07-09T14:00:41;10.83;;;5.53;;
4323;SDS011;2175;51.018;6.994;2023-07-09T14:03:18;8.03;;;5.80;;
4323;SDS011;2175;51.018;6.994;2023-07-09T14:05:46;10.40;;;5.57;;
4323;SDS011;2175;51.018;6.994;2023-07-09T14:08:12;12.73;;;6.00;;
4323;SDS011;2175;51.018;6.994;2023-07-09T14:10:38;15.70;;;6.07;;
4323;SDS011;2175;51.018;6.994;2023-07-09T14:13:04;11.07;;;5.70;;
4323;SDS011;2175;51.018;6.994;2023-07-09T14:15:30;11.60;;;5.00;;
4323;SDS011;2175;51.018;6.994;2023-07-09T14:17:56;7.70;;;4.93;;
4323;SDS011;2175;51.018;6.994;2023-07-09T14:20:22;12.77;;;4.97;;
4323;SDS011;2175;51.018;6.994;2023-07-09T14:22:49;9.17;;;5.70;;
4323;SDS011;2175;51.018;6.994;2023-07-09T14:25:33;10.23;;;5.43;;
4323;SDS011;2175;51.018;6.994;2023-07-09T14:27:58;8.57;;;5.10;;
4323;SDS011;2175;51.018;6.994;2023-07-09T14:30:24;8.57;;;5.40;;
4323;SDS011;2175;51.018;6.994;2023-07-09T14:32:50;9.90;;;5.60;;
4323;SDS011;2175;51.018;6.994;2023-07-09T14:35:21;8.50;;;5.20;;
4323;SDS011;2175;51.018;6.994;2023-07-09T14:37:48;12.17;;;6.57;;
4323;SDS011;2175;51.018;6.994;2023-07-09T14:40:16;7.43;;;5.27;;
4323;SDS011;2175;51.018;6.994;2023-07-09T14:42:43;12.27;;;5.73;;
4323;SDS011;2175;51.018;6.994;2023-07-09T14:45:16;10.40;;;5.00;;
4323;SDS011;2175;51.018;6.994;2023-07-09T14:47:42;10.27;;;5.87;;
4323;SDS011;2175;51.018;6.994;2023-07-09T14:50:08;10.93;;;5.00;;
4323;SDS011;2175;51.018;6.994;2023-07-09T14:52:34;11.80;;;5.57;;
4323;SDS011;2175;51.018;6.994;2023-07-09T14:55:00;13.20;;;5.63;;
4323;SDS011;2175;51.018;6.994;2023-07-09T14:57:27;12.17;;;5.50;;
4323;SDS011;2175;51.018;6.994;2023-07-09T14:59:55;19.27;;;5.93;;
4323;SDS011;2175;51.018;6.994;2023-07-09T15:02:35;9.30;;;5.47;;
4323;SDS011;2175;51.018;6.994;2023-07-09T15:05:05;10.20;;;5.00;;
4323;SDS011;2175;51.018;6.994;2023-07-09T15:07:36;14.87;;;5.60;;
4323;SDS011;2175;51.018;6.994;2023-07-09T15:10:01;11.00;;;4.97;;
4323;SDS011;2175;51.018;6.994;2023-07-09T15:12:32;11.43;;;6.57;;
4323;SDS011;2175;51.018;6.994;2023-07-09T15:15:13;21.63;;;7.00;;
4323;SDS011;2175;51.018;6.994;2023-07-09T15:17:54;13.57;;;6.97;;
4323;SDS011;2175;51.018;6.994;2023-07-09T15:20:24;16.27;;;6.37;;
4323;SDS011;2175;51.018;6.994;2023-07-09T15:22:53;9.93;;;5.47;;
4323;SDS011;2175;51.018;6.994;2023-07-09T15:25:21;10.50;;;5.20;;
4323;SDS011;2175;51.018;6.994;2023-07-09T15:27:48;9.90;;;5.33;;
4323;SDS011;2175;51.018;6.994;2023-07-09T15:30:15;7.83;;;5.70;;
4323;SDS011;2175;51.018;6.994;2023-07-09T15:32:44;9.00;;;5.70;;
4323;SDS011;2175;51.018;6.994;2023-07-09T15:35:11;11.33;;;5.60;;
4323;SDS011;2175;51.018;6.994;2023-07-09T15:37:37;8.90;;;5.90;;
4323;SDS011;2175;51.018;6.994;2023-07-09T15:40:03;9.50;;;5.20;;
4323;SDS011;2175;51.018;6.994;2023-07-09T15:42:38;8.67;;;5.73;;
4323;SDS011;2175;51.018;6.994;2023-07-09T15:45:04;12.60;;;6.37;;
4323;SDS011;2175;51.018;6.994;2023-07-09T15:47:29;8.00;;;5.50;;
4323;SDS011;2175;51.018;6.994;2023-07-09T15:49:55;11.17;;;5.60;;
4323;SDS011;2175;51.018;6.994;2023-07-09T15:52:20;9.10;;;5.50;;
4323;SDS011;2175;51.018;6.994;2023-07-09T15:54:46;9.97;;;5.80;;
4323;SDS011;2175;51.018;6.994;2023-07-09T15:57:13;9.23;;;5.10;;
4323;SDS011;2175;51.018;6.994;2023-07-09T15:59:40;10.70;;;5.57;;
4323;SDS011;2175;51.018;6.994;2023-07-09T16:02:13;8.03;;;5.70;;
4323;SDS011;2175;51.018;6.994;2023-07-09T16:04:41;10.57;;;5.50;;
4323;SDS011;2175;51.018;6.994;2023-07-09T16:07:08;7.40;;;6.60;;
4323;SDS011;2175;51.018;6.994;2023-07-09T16:09:34;12.67;;;5.87;;
4323;SDS011;2175;51.018;6.994;2023-07-09T16:12:00;11.33;;;6.30;;